Time;durP1;ratioP1;P1;durP2;ratioP2;P2;SDS_P1;SDS_P2;PMS_P1;PMS_P2;Temp;Humidity;BMP_temperature;BMP_pressure;BME280_temperature;BME280_humidity;BME280_pressure;Samples;Min_cycle;Max_cycle;Signal;HPM_P1;HPM_P2
2023/06/10 00:01:59;;;;;;;7.47;4.78;;;18.90;96.50;;;;;;5031813;28;20455;-64
2023/06/10 00:04:25;;;;;;;9.60;4.82;;;18.90;96.70;;;;;;5029592;28;20041;-64
2023/06/10 00:06:51;;;;;;;11.05;5.38;;;18.90;96.90;;;;;;5031092;28;20060;-64
2023/06/10 00:09:18;;;;;;;7.72;4.80;;;18.80;97.10;;;;;;5031536;28;20038;-64
2023/06/10 00:11:44;;;;;;;9.52;5.55;;;18.70;97.40;;;;;;5031362;28;20073;-64
2023/06/10 00:14:10;;;;;;;7.15;4.85;;;18.70;97.70;;;;;;5031011;28;20052;-64
2023/06/10 00:16:36;;;;;;;8.48;5.28;;;18.70;98.00;;;;;;5031649;28;20033;-64
2023/06/10 00:19:03;;;;;;;8.27;5.00;;;18.70;98.20;;;;;;5038227;28;20164;-65
2023/06/10 00:21:30;;;;;;;10.35;5.05;;;18.70;98.50;;;;;;5031335;28;20590;-64
2023/06/10 00:23:56;;;;;;;7.50;4.82;;;18.60;98.80;;;;;;5019580;28;20492;-64
2023/06/10 00:26:25;;;;;;;8.05;4.90;;;18.60;99.10;;;;;;5011936;28;20093;-65
2023/06/10 00:28:52;;;;;;;10.73;5.57;;;18.60;99.30;;;;;;5011721;28;20045;-64
2023/06/10 00:31:18;;;;;;;10.77;5.07;;;18.60;99.60;;;;;;5021400;28;20029;-64
2023/06/10 00:33:43;;;;;;;11.13;5.32;;;18.50;99.90;;;;;;5037544;28;20041;-64
2023/06/10 00:36:09;;;;;;;11.95;5.78;;;18.50;99.90;;;;;;5031230;28;20518;-64
2023/06/10 00:38:34;;;;;;;9.80;5.85;;;18.50;99.90;;;;;;5030124;28;20048;-65
2023/06/10 00:41:00;;;;;;;11.35;5.25;;;18.50;99.90;;;;;;5029897;28;20530;-65
2023/06/10 00:43:25;;;;;;;10.00;5.63;;;18.40;99.90;;;;;;5030050;28;20096;-64
2023/06/10 00:45:52;;;;;;;11.55;5.57;;;18.40;99.90;;;;;;5039379;28;20453;-64
2023/06/10 00:48:18;;;;;;;9.25;5.57;;;18.40;99.90;;;;;;5032763;28;20053;-64
2023/06/10 00:50:46;;;;;;;11.35;5.68;;;18.40;99.90;;;;;;5031379;28;20049;-64
2023/06/10 00:53:12;;;;;;;11.63;6.15;;;18.30;99.90;;;;;;5030771;28;20065;-65
2023/06/10 00:55:38;;;;;;;12.05;5.55;;;18.20;99.90;;;;;;5031117;28;20041;-64
2023/06/10 00:58:04;;;;;;;10.35;5.55;;;18.30;99.90;;;;;;5038700;28;20049;-65
2023/06/10 01:00:30;;;;;;;11.93;6.13;;;18.20;99.90;;;;;;5038954;28;20025;-65
2023/06/10 01:02:55;;;;;;;9.30;5.28;;;18.20;99.90;;;;;;5029674;28;20053;-64
2023/06/10 01:05:23;;;;;;;12.80;5.78;;;18.10;99.90;;;;;;5029464;28;20091;-64
2023/06/10 01:08:02;;;;;;;8.77;5.38;;;18.20;99.90;;;;;;5039360;28;20071;-65
2023/06/10 01:10:34;;;;;;;8.82;5.60;;;18.10;99.90;;;;;;5050568;28;20049;-64
2023/06/10 01:13:06;;;;;;;11.90;5.82;;;18.00;99.90;;;;;;5038297;28;20092;-64
2023/06/10 01:15:33;;;;;;;9.32;5.50;;;18.00;99.90;;;;;;5034555;28;20052;-64
2023/06/10 01:18:01;;;;;;;8.38;5.43;;;18.10;99.90;;;;;;5034803;28;20037;-65
2023/06/10 01:20:31;;;;;;;11.07;5.47;;;18.00;99.90;;;;;;5033765;28;20383;-64
2023/06/10 01:22:58;;;;;;;12.52;5.90;;;17.90;99.90;;;;;;5034500;28;20061;-64
2023/06/10 01:25:28;;;;;;;11.95;5.85;;;17.80;99.90;;;;;;5038373;28;20056;-64
2023/06/10 01:28:20;;;;;;;10.17;5.47;;;17.90;99.90;;;;;;5043026;28;20049;-64
2023/06/10 01:31:11;;;;;;;11.90;6.40;;;17.80;99.90;;;;;;5050230;28;20052;-65
2023/06/10 01:33:42;;;;;;;11.85;6.18;;;17.70;99.90;;;;;;5036803;28;20069;-65
2023/06/10 01:36:08;;;;;;;12.82;6.13;;;17.60;99.90;;;;;;5032924;28;20068;-64
2023/06/10 01:38:42;;;;;;;9.95;5.78;;;17.50;99.90;;;;;;5033732;28;20045;-64
2023/06/10 01:41:09;;;;;;;10.98;5.57;;;17.50;99.90;;;;;;5040915;28;20034;-65
2023/06/10 01:43:35;;;;;;;13.32;6.50;;;17.30;99.90;;;;;;5029751;28;20075;-64
2023/06/10 01:46:01;;;;;;;9.15;5.47;;;17.20;99.90;;;;;;5033800;28;20044;-64
2023/06/10 01:48:27;;;;;;;11.77;6.20;;;17.20;99.90;;;;;;5033896;28;20037;-65
2023/06/10 01:50:52;;;;;;;12.75;6.53;;;17.10;99.90;;;;;;5033702;28;20029;-64
2023/06/10 01:53:18;;;;;;;12.88;6.50;;;17.10;99.90;;;;;;5032272;28;20045;-64
2023/06/10 01:55:44;;;;;;;10.20;6.05;;;17.10;99.90;;;;;;5033055;28;20041;-64
2023/06/10 01:58:09;;;;;;;11.88;6.13;;;17.00;99.90;;;;;;5043198;28;20033;-65
2023/06/10 02:00:35;;;;;;;11.73;6.22;;;16.90;99.90;;;;;;5040411;28;20033;-65
2023/06/10 02:03:00;;;;;;;9.70;6.57;;;16.90;99.90;;;;;;5033334;28;20399;-65
2023/06/10 02:05:26;;;;;;;12.73;6.15;;;16.80;99.90;;;;;;5032156;28;20145;-64
2023/06/10 02:07:51;;;;;;;11.55;6.43;;;16.80;99.90;;;;;;5032876;28;20037;-64
2023/06/10 02:10:17;;;;;;;12.73;6.68;;;16.70;99.90;;;;;;5032051;28;20080;-64
2023/06/10 02:12:43;;;;;;;12.07;6.80;;;16.70;99.90;;;;;;5044980;28;20117;-64
2023/06/10 02:15:08;;;;;;;9.52;6.18;;;16.70;99.90;;;;;;5032035;28;20514;-65
2023/06/10 02:17:34;;;;;;;13.05;6.90;;;16.70;99.90;;;;;;5033351;28;20106;-64
2023/06/10 02:20:03;;;;;;;11.07;6.50;;;16.70;99.90;;;;;;5032632;28;20034;-65
2023/06/10 02:22:29;;;;;;;13.75;6.38;;;16.60;99.90;;;;;;5033545;28;20069;-65
2023/06/10 02:24:54;;;;;;;12.30;6.97;;;16.60;99.90;;;;;;5033321;28;20452;-64
2023/06/10 02:27:21;;;;;;;11.13;6.57;;;16.60;99.90;;;;;;5044300;28;20041;-65
2023/06/10 02:29:46;;;;;;;11.55;7.00;;;16.60;99.90;;;;;;5052949;28;20056;-64
2023/06/10 02:32:12;;;;;;;11.80;6.80;;;16.50;99.90;;;;;;5052955;28;20487;-64
2023/06/10 02:34:38;;;;;;;12.13;7.18;;;16.60;99.90;;;;;;5048026;28;20041;-64
2023/06/10 02:37:03;;;;;;;13.02;7.13;;;16.50;99.90;;;;;;5033071;28;20034;-64
2023/06/10 02:39:29;;;;;;;13.05;6.60;;;16.40;99.90;;;;;;5033196;28;20396;-64
2023/06/10 02:41:55;;;;;;;13.80;6.60;;;16.40;99.90;;;;;;5032623;28;20042;-65
2023/06/10 02:44:20;;;;;;;13.52;6.75;;;16.40;99.90;;;;;;5033844;28;20046;-64
2023/06/10 02:46:46;;;;;;;12.20;6.63;;;16.30;99.90;;;;;;5032565;28;20037;-64
2023/06/10 02:49:12;;;;;;;10.70;6.03;;;16.40;99.90;;;;;;5032453;28;20555;-65
2023/06/10 02:51:38;;;;;;;11.15;6.78;;;16.40;99.90;;;;;;5029722;28;20041;-64
2023/06/10 02:54:04;;;;;;;9.30;5.80;;;16.30;99.90;;;;;;5032035;28;20091;-64
2023/06/10 02:56:31;;;;;;;10.27;6.57;;;16.30;99.90;;;;;;5032874;28;20041;-64
2023/06/10 02:58:57;;;;;;;12.68;6.43;;;16.20;99.90;;;;;;5039161;28;20486;-64
2023/06/10 03:01:23;;;;;;;13.07;6.13;;;16.30;99.90;;;;;;5045111;28;20045;-64
2023/06/10 03:03:50;;;;;;;12.52;6.88;;;16.20;99.90;;;;;;5052523;28;20505;-64
2023/06/10 03:06:16;;;;;;;11.80;6.57;;;16.10;99.90;;;;;;5042955;28;20043;-65
2023/06/10 03:08:42;;;;;;;10.45;6.55;;;16.10;99.90;;;;;;5031923;28;20407;-64
2023/06/10 03:11:08;;;;;;;11.70;5.80;;;16.10;99.90;;;;;;5032323;28;20041;-65
2023/06/10 03:13:33;;;;;;;11.40;6.25;;;16.00;99.90;;;;;;5027678;28;20037;-64
2023/06/10 03:15:59;;;;;;;11.73;6.20;;;16.00;99.90;;;;;;5039487;28;20037;-64
2023/06/10 03:18:27;;;;;;;14.52;6.45;;;16.00;99.90;;;;;;5045795;28;20048;-64
2023/06/10 03:20:54;;;;;;;12.13;6.40;;;15.90;99.90;;;;;;5044918;28;20040;-64
2023/06/10 03:23:20;;;;;;;11.85;6.45;;;16.00;99.90;;;;;;5032015;28;20040;-64
2023/06/10 03:25:46;;;;;;;12.73;6.03;;;15.90;99.90;;;;;;5032353;28;20033;-64
2023/06/10 03:28:12;;;;;;;10.73;6.50;;;15.90;99.90;;;;;;5032278;28;20033;-64
2023/06/10 03:30:37;;;;;;;10.40;6.13;;;15.70;99.90;;;;;;5031106;28;20136;-64
2023/06/10 03:33:03;;;;;;;12.32;6.15;;;15.80;99.90;;;;;;5042289;28;20110;-65
2023/06/10 03:35:29;;;;;;;9.52;6.38;;;15.70;99.90;;;;;;5039095;28;20047;-64
2023/06/10 03:37:55;;;;;;;12.95;6.07;;;15.70;99.90;;;;;;5032187;28;20084;-64
2023/06/10 03:40:20;;;;;;;11.15;6.28;;;15.60;99.90;;;;;;5032090;28;20045;-64
2023/06/10 03:42:46;;;;;;;12.07;6.18;;;15.60;99.90;;;;;;5031560;28;20380;-64
2023/06/10 03:45:12;;;;;;;12.25;6.45;;;15.50;99.90;;;;;;5031276;28;20473;-64
2023/06/10 03:47:40;;;;;;;12.55;6.97;;;15.50;99.90;;;;;;5038082;28;20048;-64
2023/06/10 03:50:07;;;;;;;11.15;6.13;;;15.50;99.90;;;;;;5030690;28;20045;-64
2023/06/10 03:52:33;;;;;;;10.88;6.30;;;15.50;99.90;;;;;;5066437;22;20131;-61
2023/06/10 03:54:59;;;;;;;11.65;6.47;;;15.50;99.90;;;;;;5075639;28;20076;-61
2023/06/10 03:57:25;;;;;;;10.07;6.20;;;15.50;99.90;;;;;;5084748;28;20453;-61
2023/06/10 03:59:51;;;;;;;15.55;6.32;;;15.50;99.90;;;;;;5091693;28;20123;-61
2023/06/10 04:02:16;;;;;;;12.88;6.07;;;15.50;99.90;;;;;;5072048;28;20086;-60
2023/06/10 04:04:42;;;;;;;11.05;5.90;;;15.50;99.90;;;;;;5068200;28;20449;-61
2023/06/10 04:07:08;;;;;;;11.75;6.07;;;15.50;99.90;;;;;;5070451;28;20509;-61
2023/06/10 04:09:35;;;;;;;12.18;6.63;;;15.50;99.90;;;;;;5067793;28;20051;-61
2023/06/10 04:12:01;;;;;;;14.52;6.53;;;15.60;99.90;;;;;;5067183;28;20101;-61
2023/06/10 04:14:27;;;;;;;12.48;6.60;;;15.60;99.90;;;;;;5069094;28;20671;-61
2023/06/10 04:16:53;;;;;;;12.32;5.80;;;15.70;99.90;;;;;;5070915;28;20040;-61
2023/06/10 04:19:19;;;;;;;9.90;5.53;;;15.60;99.90;;;;;;5071597;28;20157;-61
2023/06/10 04:21:45;;;;;;;12.02;6.47;;;15.70;99.90;;;;;;5069762;28;20045;-61
2023/06/10 04:24:11;;;;;;;13.95;6.05;;;15.70;99.90;;;;;;5071071;28;20037;-61
2023/06/10 04:26:36;;;;;;;10.10;6.28;;;15.70;99.90;;;;;;5069883;28;20158;-61
2023/06/10 04:29:02;;;;;;;10.27;5.97;;;15.80;99.90;;;;;;5077744;28;20474;-61
2023/06/10 04:31:28;;;;;;;13.25;6.07;;;15.80;99.90;;;;;;5071102;28;20094;-61
2023/06/10 04:33:54;;;;;;;12.10;6.38;;;15.80;99.90;;;;;;5071215;28;20041;-61
2023/06/10 04:36:20;;;;;;;12.57;6.30;;;15.80;99.90;;;;;;5068596;28;20044;-62
2023/06/10 04:38:46;;;;;;;14.45;6.65;;;15.90;99.90;;;;;;5071314;28;20033;-62
2023/06/10 04:41:12;;;;;;;11.93;5.97;;;15.90;99.90;;;;;;5071112;28;20095;-61
2023/06/10 04:43:38;;;;;;;12.73;6.38;;;15.90;99.90;;;;;;5078562;28;20657;-61
2023/06/10 04:46:04;;;;;;;9.82;6.07;;;15.90;99.90;;;;;;5087144;28;20040;-61
2023/06/10 04:48:29;;;;;;;9.63;6.38;;;16.00;99.90;;;;;;5095207;28;20451;-61
2023/06/10 04:50:56;;;;;;;12.38;6.25;;;16.00;99.90;;;;;;5086216;28;20036;-62
2023/06/10 04:53:22;;;;;;;12.43;6.70;;;16.00;99.90;;;;;;5074474;28;20458;-62
2023/06/10 04:55:48;;;;;;;12.80;6.30;;;16.00;99.90;;;;;;5071272;28;20078;-62
2023/06/10 04:58:14;;;;;;;13.80;6.53;;;16.10;99.90;;;;;;5072606;28;20064;-62
2023/06/10 05:00:40;;;;;;;13.25;6.80;;;16.10;99.90;;;;;;5072846;28;20543;-62
2023/06/10 05:03:05;;;;;;;11.43;6.78;;;16.20;99.90;;;;;;5074681;28;20040;-61
2023/06/10 05:05:31;;;;;;;13.88;6.47;;;16.30;99.90;;;;;;5073883;28;20397;-61
2023/06/10 05:07:57;;;;;;;11.82;6.15;;;16.40;99.90;;;;;;5073368;28;20105;-61
2023/06/10 05:10:22;;;;;;;11.77;6.57;;;16.40;99.90;;;;;;5074669;28;20047;-62
2023/06/10 05:12:48;;;;;;;14.15;7.68;;;16.50;99.90;;;;;;5078862;28;20039;-61
2023/06/10 05:15:13;;;;;;;12.52;6.95;;;16.50;99.90;;;;;;5071236;28;20063;-62
2023/06/10 05:17:39;;;;;;;11.15;6.43;;;16.60;99.90;;;;;;5071738;28;20049;-61
2023/06/10 05:20:06;;;;;;;14.32;6.85;;;16.70;99.90;;;;;;5074559;28;20410;-61
2023/06/10 05:22:31;;;;;;;10.77;6.80;;;16.70;99.90;;;;;;5073346;28;20036;-61
2023/06/10 05:24:57;;;;;;;13.32;6.85;;;16.80;99.90;;;;;;5072850;28;20041;-60
2023/06/10 05:27:24;;;;;;;15.35;6.85;;;16.80;99.90;;;;;;5073346;28;20103;-61
2023/06/10 05:29:51;;;;;;;12.32;6.82;;;16.90;99.90;;;;;;5077062;28;20534;-61
2023/06/10 05:32:17;;;;;;;12.63;6.72;;;17.00;99.90;;;;;;5073978;28;20032;-61
2023/06/10 05:34:43;;;;;;;16.08;6.78;;;17.10;99.90;;;;;;5074054;28;20059;-62
2023/06/10 05:37:08;;;;;;;13.82;6.68;;;17.30;99.90;;;;;;5074170;28;20482;-61
2023/06/10 05:39:37;;;;;;;13.02;6.32;;;17.50;99.90;;;;;;5072921;28;20040;-61
2023/06/10 05:42:04;;;;;;;13.50;7.20;;;17.60;99.90;;;;;;5073615;28;20036;-61
2023/06/10 05:44:30;;;;;;;12.93;6.60;;;17.70;99.90;;;;;;5071783;28;20132;-61
2023/06/10 05:46:58;;;;;;;12.50;6.38;;;17.80;99.90;;;;;;5072587;28;20037;-61
2023/06/10 05:49:24;;;;;;;14.13;6.50;;;17.80;99.90;;;;;;5072023;28;20047;-65
2023/06/10 05:51:49;;;;;;;14.70;6.80;;;17.80;99.90;;;;;;5069099;28;20071;-65
2023/06/10 05:54:15;;;;;;;12.90;6.88;;;17.80;99.90;;;;;;5070892;28;20031;-65
2023/06/10 05:56:41;;;;;;;13.73;6.95;;;17.90;99.90;;;;;;5083604;28;20036;-65
2023/06/10 05:59:06;;;;;;;13.23;5.90;;;18.00;99.90;;;;;;5070597;28;20035;-65
2023/06/10 06:01:32;;;;;;;9.50;6.68;;;18.00;99.90;;;;;;5071894;28;20037;-65
2023/06/10 06:03:57;;;;;;;11.63;6.70;;;18.00;99.90;;;;;;5072486;28;20075;-65
2023/06/10 06:06:23;;;;;;;11.45;6.40;;;18.10;99.90;;;;;;5070748;28;20036;-65
2023/06/10 06:08:49;;;;;;;12.65;6.57;;;18.10;99.90;;;;;;5067180;28;20624;-65
2023/06/10 06:11:15;;;;;;;13.43;6.55;;;18.20;99.90;;;;;;5070391;28;20033;-65
2023/06/10 06:13:41;;;;;;;11.32;6.45;;;18.30;99.90;;;;;;5070064;28;20032;-65
2023/06/10 06:16:07;;;;;;;12.85;6.50;;;18.40;99.90;;;;;;5071543;28;20171;-65
2023/06/10 06:18:33;;;;;;;12.48;6.38;;;18.50;99.90;;;;;;5071086;28;20653;-66
2023/06/10 06:20:58;;;;;;;12.75;6.43;;;18.50;99.90;;;;;;5073058;28;20036;-65
2023/06/10 06:23:24;;;;;;;10.52;6.05;;;18.50;99.90;;;;;;5071583;28;20032;-66
2023/06/10 06:25:50;;;;;;;15.10;6.38;;;18.50;99.90;;;;;;5069476;28;20486;-65
2023/06/10 06:28:15;;;;;;;13.90;7.63;;;18.50;99.90;;;;;;5070863;28;20062;-65
2023/06/10 06:30:41;;;;;;;11.77;6.20;;;18.60;99.90;;;;;;5072363;28;20040;-65
2023/06/10 06:33:06;;;;;;;10.30;6.60;;;18.60;99.90;;;;;;5072999;28;20036;-65
2023/06/10 06:35:33;;;;;;;11.45;6.35;;;18.70;99.90;;;;;;5068980;28;20075;-65
2023/06/10 06:37:59;;;;;;;11.18;6.60;;;18.70;99.90;;;;;;5069486;28;20527;-65
2023/06/10 06:40:25;;;;;;;12.48;6.15;;;18.90;99.90;;;;;;5069940;28;20052;-65
2023/06/10 06:42:50;;;;;;;11.55;6.18;;;19.10;99.90;;;;;;5068698;28;20040;-65
2023/06/10 06:45:16;;;;;;;14.05;6.80;;;19.10;99.90;;;;;;5064056;28;20143;-66
2023/06/10 06:47:42;;;;;;;9.82;6.05;;;19.20;99.90;;;;;;5069180;28;20071;-65
2023/06/10 06:50:09;;;;;;;12.07;6.30;;;19.20;99.90;;;;;;5071641;28;20059;-66
2023/06/10 06:52:34;;;;;;;11.18;6.40;;;19.30;99.90;;;;;;5067960;28;20679;-65
2023/06/10 06:55:00;;;;;;;10.13;5.72;;;19.50;99.90;;;;;;5070966;28;20075;-65
2023/06/10 06:57:25;;;;;;;11.25;6.60;;;19.60;99.90;;;;;;5069859;28;20387;-66
2023/06/10 06:59:51;;;;;;;13.60;6.93;;;19.70;99.90;;;;;;5070274;28;20109;-65
2023/06/10 07:02:18;;;;;;;10.50;5.68;;;19.70;99.90;;;;;;5069904;28;20032;-65
2023/06/10 07:04:45;;;;;;;13.68;6.50;;;19.90;99.90;;;;;;5071935;28;20070;-65
2023/06/10 07:07:11;;;;;;;11.82;6.22;;;20.00;99.90;;;;;;5071019;28;20107;-66
2023/06/10 07:09:38;;;;;;;13.18;6.28;;;20.10;99.90;;;;;;5070482;28;20199;-66
2023/06/10 07:12:03;;;;;;;9.82;5.97;;;20.20;99.90;;;;;;5070603;28;20079;-65
2023/06/10 07:14:29;;;;;;;11.55;6.78;;;20.30;99.90;;;;;;5069865;28;20072;-66
2023/06/10 07:16:55;;;;;;;10.20;5.93;;;20.30;99.90;;;;;;5070782;28;20082;-65
2023/06/10 07:19:20;;;;;;;11.55;5.72;;;20.40;99.90;;;;;;5070443;28;20036;-65
2023/06/10 07:21:47;;;;;;;10.38;5.88;;;20.60;99.90;;;;;;5059577;28;20033;-66
2023/06/10 07:24:13;;;;;;;14.00;6.55;;;20.80;99.90;;;;;;5059293;28;20044;-65
2023/06/10 07:26:38;;;;;;;14.18;6.38;;;20.80;99.90;;;;;;5071894;28;20036;-65
2023/06/10 07:29:04;;;;;;;7.97;5.57;;;20.90;99.90;;;;;;5071790;28;20036;-66
2023/06/10 07:31:29;;;;;;;12.15;6.43;;;20.90;99.90;;;;;;5070770;28;20041;-66
2023/06/10 07:33:55;;;;;;;13.13;6.18;;;20.90;99.90;;;;;;5080628;28;20036;-65
2023/06/10 07:36:21;;;;;;;12.63;6.28;;;21.00;99.90;;;;;;5075729;28;20082;-65
2023/06/10 07:38:46;;;;;;;13.40;6.25;;;21.20;99.90;;;;;;5082737;28;20393;-65
2023/06/10 07:41:12;;;;;;;11.88;6.47;;;21.10;99.90;;;;;;5070435;28;20044;-65
2023/06/10 07:43:38;;;;;;;9.27;6.53;;;21.00;99.90;;;;;;5067427;28;20086;-65
2023/06/10 07:46:05;;;;;;;10.73;5.60;;;21.10;99.90;;;;;;5069226;28;20028;-65
2023/06/10 07:48:31;;;;;;;12.68;6.68;;;21.10;99.90;;;;;;5064320;28;20066;-66
2023/06/10 07:50:56;;;;;;;11.68;6.47;;;21.10;99.90;;;;;;5071969;28;20032;-66
2023/06/10 07:53:22;;;;;;;12.35;6.40;;;21.20;99.90;;;;;;5070134;28;20398;-66
2023/06/10 07:55:47;;;;;;;12.90;7.03;;;21.40;99.90;;;;;;5069590;28;20047;-65
2023/06/10 07:58:13;;;;;;;12.90;6.88;;;21.30;99.90;;;;;;5069388;28;20468;-65
2023/06/10 08:00:39;;;;;;;11.73;7.72;;;21.30;99.90;;;;;;5070651;28;20107;-65
2023/06/10 08:03:04;;;;;;;13.32;7.55;;;21.50;99.90;;;;;;5062712;28;20067;-66
2023/06/10 08:05:30;;;;;;;13.82;7.47;;;21.60;99.90;;;;;;5073755;28;20032;-66
2023/06/10 08:07:56;;;;;;;12.70;7.18;;;21.60;99.90;;;;;;5077074;28;20111;-66
2023/06/10 08:10:21;;;;;;;15.50;8.43;;;21.70;99.90;;;;;;5083623;28;20409;-65
2023/06/10 08:12:47;;;;;;;12.98;7.45;;;21.90;99.90;;;;;;5078562;28;20115;-66
2023/06/10 08:15:12;;;;;;;14.25;7.88;;;21.90;99.90;;;;;;5064838;28;20045;-65
2023/06/10 08:17:39;;;;;;;13.23;8.25;;;22.00;99.90;;;;;;5078347;28;20039;-65
2023/06/10 08:20:05;;;;;;;13.32;8.00;;;21.90;99.90;;;;;;5072177;28;20036;-65
2023/06/10 08:22:31;;;;;;;17.70;8.95;;;21.90;99.90;;;;;;5072548;28;20041;-66
2023/06/10 08:24:57;;;;;;;14.88;8.60;;;21.90;99.90;;;;;;5072030;28;20037;-65
2023/06/10 08:27:22;;;;;;;13.05;8.30;;;22.00;99.90;;;;;;5075077;28;20032;-65
2023/06/10 08:29:48;;;;;;;12.38;8.23;;;22.20;99.90;;;;;;5075167;28;20481;-66
2023/06/10 08:32:14;;;;;;;13.95;9.43;;;22.30;99.90;;;;;;5074006;28;20383;-66
2023/06/10 08:34:39;;;;;;;13.75;8.55;;;22.40;99.90;;;;;;5074049;28;20040;-66
2023/06/10 08:37:05;;;;;;;12.75;7.80;;;22.60;99.90;;;;;;5074145;28;20037;-66
2023/06/10 08:39:33;;;;;;;10.98;8.02;;;22.90;99.90;;;;;;5080905;28;20115;-66
2023/06/10 08:42:33;;;;;;;15.65;8.35;;;23.00;99.90;;;;;;5075783;28;20041;-66
2023/06/10 08:45:02;;;;;;;14.30;8.40;;;23.10;99.90;;;;;;5073632;28;20040;-67
2023/06/10 08:47:31;;;;;;;11.02;7.40;;;23.20;99.90;;;;;;5071381;28;20082;-67
2023/06/10 08:50:03;;;;;;;12.00;6.60;;;23.40;99.90;;;;;;5081987;28;20494;-66
2023/06/10 08:52:33;;;;;;;12.35;6.75;;;23.60;99.60;;;;;;5064995;28;20046;-66
2023/06/10 08:55:02;;;;;;;8.07;6.43;;;23.70;97.60;;;;;;5079186;28;20036;-66
2023/06/10 08:57:30;;;;;;;17.50;7.03;;;23.80;95.60;;;;;;5072394;28;20151;-66
2023/06/10 08:59:56;;;;;;;12.73;7.20;;;23.90;95.30;;;;;;5072648;28;20033;-67
2023/06/10 09:02:23;;;;;;;10.80;6.78;;;24.00;94.00;;;;;;5072949;28;20093;-66
2023/06/10 09:04:49;;;;;;;12.32;6.93;;;24.20;93.90;;;;;;5069686;28;20064;-67
2023/06/10 09:07:16;;;;;;;10.57;7.45;;;24.20;93.10;;;;;;5073219;28;20432;-67
2023/06/10 09:09:45;;;;;;;9.63;6.28;;;24.00;93.50;;;;;;5072630;28;20047;-66
2023/06/10 09:12:13;;;;;;;11.45;6.60;;;24.00;93.00;;;;;;5071885;28;20036;-66
2023/06/10 09:14:39;;;;;;;10.35;6.70;;;23.90;93.70;;;;;;5067998;28;20048;-66
2023/06/10 09:17:06;;;;;;;10.10;6.30;;;24.00;91.50;;;;;;5073978;28;20037;-67
2023/06/10 09:19:31;;;;;;;11.20;5.88;;;24.20;90.20;;;;;;5076742;28;20486;-67
2023/06/10 09:21:58;;;;;;;11.13;5.82;;;24.40;88.00;;;;;;5082495;28;20052;-66
2023/06/10 09:24:24;;;;;;;9.38;6.15;;;24.60;87.80;;;;;;5071956;28;20051;-66
2023/06/10 09:26:50;;;;;;;9.25;5.53;;;24.60;84.50;;;;;;5067928;28;20040;-67
2023/06/10 09:29:17;;;;;;;7.63;5.18;;;24.80;81.30;;;;;;5074845;28;20644;-66
2023/06/10 09:31:43;;;;;;;10.43;5.32;;;24.80;80.80;;;;;;5071030;28;20055;-67
2023/06/10 09:34:11;;;;;;;10.50;4.85;;;25.00;80.40;;;;;;5070776;28;20044;-66
2023/06/10 09:36:38;;;;;;;7.50;4.70;;;25.20;77.40;;;;;;5070395;28;20036;-67
2023/06/10 09:39:04;;;;;;;10.88;5.78;;;25.40;78.00;;;;;;5073599;28;20028;-67
2023/06/10 09:41:40;;;;;;;8.70;4.80;;;25.50;78.20;;;;;;5072755;28;20044;-67
2023/06/10 09:44:16;;;;;;;6.90;4.88;;;25.60;77.00;;;;;;5073529;28;20045;-67
2023/06/10 09:46:44;;;;;;;9.50;5.25;;;25.60;79.80;;;;;;5080896;28;20048;-67
2023/06/10 09:49:10;;;;;;;9.38;5.20;;;25.60;78.50;;;;;;5081958;28;20512;-67
2023/06/10 09:51:36;;;;;;;8.15;4.90;;;25.30;76.80;;;;;;5072425;28;20044;-67
2023/06/10 09:54:04;;;;;;;8.40;5.05;;;25.30;77.50;;;;;;5070460;28;20080;-67
2023/06/10 09:56:35;;;;;;;7.10;4.68;;;25.00;76.70;;;;;;5073936;28;20032;-67
2023/06/10 09:59:01;;;;;;;9.27;4.95;;;24.90;76.80;;;;;;5072677;28;20118;-66
2023/06/10 10:01:27;;;;;;;7.10;5.10;;;24.90;76.80;;;;;;5072016;28;20512;-67
2023/06/10 10:03:52;;;;;;;7.50;4.40;;;25.00;78.00;;;;;;5069003;28;20033;-67
2023/06/10 10:06:20;;;;;;;5.72;3.83;;;25.10;77.00;;;;;;5072151;28;20118;-67
2023/06/10 10:08:48;;;;;;;5.60;3.70;;;25.20;74.40;;;;;;5073414;28;20115;-66
2023/06/10 10:11:17;;;;;;;6.45;4.47;;;25.40;73.00;;;;;;5072354;28;20112;-67
2023/06/10 10:13:49;;;;;;;5.45;3.88;;;25.70;71.00;;;;;;5072555;28;20040;-67
2023/06/10 10:16:35;;;;;;;4.60;3.70;;;25.90;69.40;;;;;;5072631;28;20032;-67
2023/06/10 10:19:07;;;;;;;6.85;4.30;;;25.90;67.20;;;;;;5071377;28;20044;-67
2023/06/10 10:21:39;;;;;;;7.88;4.20;;;25.90;66.60;;;;;;5079726;28;20047;-67
2023/06/10 10:24:35;;;;;;;7.38;3.97;;;25.60;66.80;;;;;;5069227;28;20087;-67
2023/06/10 10:27:05;;;;;;;7.22;4.07;;;25.50;68.50;;;;;;5068868;28;20044;-67
2023/06/10 10:29:33;;;;;;;;;;;25.60;69.40;;;;;;5073538;28;20036;-67
2023/06/10 10:32:00;;;;;;;6.53;3.75;;;25.60;65.20;;;;;;5071806;28;20012;-68
2023/06/10 10:34:50;;;;;;;6.10;3.90;;;25.80;67.40;;;;;;5071342;28;20098;-68
2023/06/10 10:37:17;;;;;;;8.65;3.35;;;26.00;62.50;;;;;;5052814;28;20032;-68
2023/06/10 10:39:44;;;;;;;4.53;3.33;;;25.90;62.90;;;;;;5076499;28;20540;-68
2023/06/10 10:42:10;;;;;;;6.22;3.67;;;26.10;62.10;;;;;;5072236;28;20024;-67
2023/06/10 10:44:40;;;;;;;6.45;3.53;;;26.10;61.80;;;;;;5072879;28;20043;-67
2023/06/10 10:47:09;;;;;;;6.97;3.70;;;26.30;61.90;;;;;;5072569;28;20128;-67
2023/06/10 10:49:37;;;;;;;5.22;3.33;;;26.40;59.10;;;;;;5068284;28;20115;-67
2023/06/10 10:52:05;;;;;;;5.68;3.13;;;26.60;59.80;;;;;;5062792;28;20044;-67
2023/06/10 10:54:33;;;;;;;5.93;3.20;;;26.60;58.30;;;;;;5070385;28;20070;-67
2023/06/10 10:57:14;;;;;;;6.40;3.17;;;26.70;58.10;;;;;;5072873;28;20040;-67
2023/06/10 11:00:11;;;;;;;5.50;3.30;;;26.80;57.20;;;;;;5054672;28;20047;-67
2023/06/10 11:02:45;;;;;;;5.50;3.13;;;26.80;55.40;;;;;;5071309;28;20123;-67
2023/06/10 11:05:13;;;;;;;5.05;3.03;;;26.70;55.30;;;;;;5074550;28;20114;-67
2023/06/10 11:07:39;;;;;;;3.88;2.50;;;26.60;55.40;;;;;;5073081;28;20036;-66
2023/06/10 11:10:08;;;;;;;4.90;3.10;;;26.60;52.40;;;;;;5070048;28;20394;-67
2023/06/10 11:12:53;;;;;;;5.15;2.92;;;26.70;51.90;;;;;;5069366;28;20040;-67
2023/06/10 11:15:20;;;;;;;5.70;2.95;;;26.80;53.30;;;;;;5069725;28;20082;-67
2023/06/10 11:18:10;;;;;;;3.67;2.72;;;26.80;53.60;;;;;;5071340;28;20029;-67
2023/06/10 11:20:48;;;;;;;4.32;2.70;;;27.00;50.30;;;;;;5065526;28;20072;-67
2023/06/10 11:23:26;;;;;;;3.55;2.40;;;27.20;50.50;;;;;;5071149;28;20497;-66
2023/06/10 11:26:18;;;;;;;4.97;3.00;;;27.30;49.00;;;;;;5071241;28;20040;-67
2023/06/10 11:28:46;;;;;;;5.05;2.95;;;27.30;48.40;;;;;;5071775;28;20063;-66
2023/06/10 11:31:26;;;;;;;4.45;3.10;;;27.30;49.00;;;;;;5071743;28;20044;-66
2023/06/10 11:34:06;;;;;;;3.28;2.70;;;27.40;47.50;;;;;;5079145;28;20041;-66
2023/06/10 11:36:42;;;;;;;5.40;2.58;;;27.50;46.10;;;;;;5070589;28;20060;-66
2023/06/10 11:39:09;;;;;;;4.22;2.50;;;27.60;45.90;;;;;;5065599;28;20742;-66
2023/06/10 11:41:36;;;;;;;5.03;2.50;;;27.90;45.50;;;;;;5068235;28;20028;-66
2023/06/10 11:44:13;;;;;;;4.97;2.83;;;28.00;44.20;;;;;;5069862;28;20044;-66
2023/06/10 11:46:42;;;;;;;6.25;2.55;;;28.20;45.40;;;;;;5071874;28;20036;-67
2023/06/10 11:49:07;;;;;;;4.18;2.42;;;28.20;44.10;;;;;;5072020;28;20123;-66
2023/06/10 11:51:36;;;;;;;4.60;2.80;;;28.00;43.70;;;;;;5071716;28;20041;-66
2023/06/10 11:54:03;;;;;;;8.15;2.83;;;28.00;44.30;;;;;;5071455;28;20490;-66
2023/06/10 11:56:30;;;;;;;4.30;2.38;;;28.00;43.40;;;;;;5076597;28;20044;-66
2023/06/10 11:58:58;;;;;;;3.38;2.75;;;28.00;42.30;;;;;;5070521;28;20044;-66
2023/06/10 12:01:25;;;;;;;6.22;2.33;;;27.90;42.20;;;;;;5068480;28;20040;-66
2023/06/10 12:04:21;;;;;;;4.30;2.72;;;27.80;42.40;;;;;;5071543;28;20040;-66
2023/06/10 12:06:48;;;;;;;3.70;2.40;;;27.90;41.10;;;;;;5069232;28;20123;-66
2023/06/10 12:09:18;;;;;;;4.68;2.20;;;28.00;43.10;;;;;;5061597;28;20063;-65
2023/06/10 12:11:45;;;;;;;4.00;2.45;;;28.20;41.70;;;;;;5067615;28;20044;-66
2023/06/10 12:14:10;;;;;;;4.32;2.25;;;28.20;41.00;;;;;;5072953;28;20036;-66
2023/06/10 12:16:36;;;;;;;3.50;2.50;;;28.30;39.90;;;;;;5074955;28;20111;-66
2023/06/10 12:19:03;;;;;;;6.05;2.60;;;28.40;38.80;;;;;;5070288;28;20036;-66
2023/06/10 12:21:30;;;;;;;5.07;2.80;;;28.60;40.30;;;;;;5068827;28;20040;-66
2023/06/10 12:24:09;;;;;;;4.15;2.50;;;28.50;40.30;;;;;;5068415;28;20036;-66
2023/06/10 12:26:36;;;;;;;3.50;2.28;;;28.50;41.00;;;;;;5069024;28;20055;-66
2023/06/10 12:29:12;;;;;;;4.95;2.42;;;28.40;40.40;;;;;;5071432;28;20044;-67
2023/06/10 12:31:57;;;;;;;3.67;2.58;;;28.40;39.90;;;;;;5070671;28;20036;-66
2023/06/10 12:34:37;;;;;;;5.97;2.88;;;28.10;40.10;;;;;;5074634;28;20044;-66
2023/06/10 12:37:05;;;;;;;3.65;2.20;;;28.10;41.20;;;;;;5071111;28;20099;-66
2023/06/10 12:39:32;;;;;;;3.95;2.42;;;28.20;40.40;;;;;;5070094;28;20533;-67
2023/06/10 12:41:59;;;;;;;4.55;2.72;;;28.20;40.40;;;;;;5068645;28;20036;-66
2023/06/10 12:44:35;;;;;;;6.25;2.42;;;28.20;39.90;;;;;;5070242;28;20044;-66